createdAt,value
2023-01-13T00:00:37.857Z,8.9
2023-01-13T00:10:43.830Z,8.9
2023-01-13T00:20:49.867Z,8.9
2023-01-13T00:30:55.916Z,8.9
2023-01-13T00:41:01.952Z,8.9
2023-01-13T00:51:07.980Z,8.9
2023-01-13T01:01:14.140Z,8.9
2023-01-13T01:11:20.059Z,8.9
2023-01-13T01:21:26.121Z,8.9
2023-01-13T01:31:32.246Z,8.9
2023-01-13T01:41:38.248Z,8.9
2023-01-13T01:51:45.357Z,8.9
2023-01-13T02:11:57.490Z,8.8
2023-01-13T02:22:03.506Z,8.8
2023-01-13T02:32:09.571Z,8.8
2023-01-13T02:42:15.602Z,8.6
2023-01-13T02:52:21.678Z,8.6
2023-01-13T03:02:27.715Z,8.7
2023-01-13T03:12:33.726Z,8.7
2023-01-13T03:22:39.736Z,8.7
2023-01-13T03:32:45.836Z,8.5
2023-01-13T03:42:51.832Z,8.5
2023-01-13T03:52:57.900Z,8.5
2023-01-13T04:03:03.929Z,8.5
2023-01-13T04:13:10.037Z,8.6
2023-01-13T04:23:16.019Z,8.6
2023-01-13T04:33:22.076Z,8.4
2023-01-13T04:43:28.116Z,8.6
2023-01-13T04:53:34.189Z,8.6
2023-01-13T05:03:40.189Z,8.4
2023-01-13T05:13:46.255Z,8.4
2023-01-13T05:23:52.281Z,8.4
2023-01-13T05:33:58.347Z,8.4
2023-01-13T05:44:04.388Z,8.5
2023-01-13T05:54:10.452Z,8.5
2023-01-13T06:04:16.518Z,8.5
2023-01-13T06:14:22.562Z,8.4
2023-01-13T06:24:28.551Z,8.4
2023-01-13T06:34:34.686Z,8.5
2023-01-13T06:44:40.638Z,8.5
2023-01-13T06:54:46.747Z,8.6
2023-01-13T07:04:52.729Z,8.6
2023-01-13T07:14:58.835Z,8.5
2023-01-13T07:25:04.858Z,8.5
2023-01-13T07:35:11.097Z,8.4
2023-01-13T07:45:16.983Z,9
2023-01-13T07:55:23.038Z,9.1
2023-01-13T08:05:29.040Z,9.1
2023-01-13T08:15:35.104Z,9.2
2023-01-13T08:25:41.121Z,9.1
2023-01-13T08:35:47.187Z,9.1
2023-01-13T08:45:53.243Z,9.1
2023-01-13T08:55:59.290Z,8.9
2023-01-13T09:16:13.330Z,8.8
2023-01-13T09:26:19.269Z,9
2023-01-13T09:36:25.338Z,8.9
2023-01-13T09:46:31.472Z,8.9
2023-01-13T09:56:37.457Z,8.7
2023-01-13T10:06:44.581Z,8.7
2023-01-13T10:16:50.645Z,8.8
2023-01-13T10:26:56.659Z,8.8
2023-01-13T10:37:02.786Z,8.7
2023-01-13T10:47:08.759Z,8.7
2023-01-13T10:57:14.824Z,8.7
2023-01-13T11:07:20.844Z,8.7
2023-01-13T11:17:26.924Z,8.7
2023-01-13T11:27:32.967Z,8.7
2023-01-13T11:37:38.996Z,8.7
2023-01-13T11:47:45.053Z,8.7
2023-01-13T11:57:51.114Z,8.7
2023-01-13T12:07:57.131Z,8.7
2023-01-13T12:18:03.252Z,8.7
2023-01-13T12:28:09.219Z,8.8
2023-01-13T12:38:15.290Z,8.9
2023-01-13T12:48:21.318Z,9
2023-01-13T12:58:27.438Z,9
2023-01-13T13:08:33.403Z,9.1
2023-01-13T13:18:39.518Z,8.8
2023-01-13T13:28:45.520Z,8.8
2023-01-13T13:38:51.566Z,8.8
2023-01-13T13:48:57.603Z,8.9
2023-01-13T13:59:03.723Z,8.9
2023-01-13T14:09:09.668Z,8.9
2023-01-13T14:19:15.699Z,8.8
2023-01-13T14:29:21.719Z,8.7
2023-01-13T14:39:27.787Z,8.7
2023-01-13T14:49:33.787Z,8.7
2023-01-13T14:59:39.872Z,8.7
2023-01-13T15:09:45.891Z,8.6
2023-01-13T15:19:51.949Z,8.6
2023-01-13T15:29:57.979Z,8.6
2023-01-13T15:40:04.043Z,8.7
2023-01-13T15:50:10.054Z,8.7
2023-01-13T16:00:16.155Z,8.7
2023-01-13T16:10:22.136Z,8.7
2023-01-13T16:20:28.240Z,8.7
2023-01-13T16:30:34.271Z,8.7
2023-01-13T16:50:48.327Z,8.6
2023-01-13T17:00:54.438Z,8.6
2023-01-13T17:11:00.434Z,8.6
2023-01-13T17:21:06.429Z,8.6
2023-01-13T17:31:12.494Z,8.5
2023-01-13T17:41:18.519Z,8.5
2023-01-13T17:51:24.594Z,8.5
2023-01-13T18:01:30.843Z,8.6
2023-01-13T18:11:36.688Z,8.6
2023-01-13T18:21:42.683Z,8.4
2023-01-13T18:31:48.778Z,8.4
2023-01-13T18:41:54.773Z,8.4
2023-01-13T18:52:00.859Z,8.4
2023-01-13T19:02:06.921Z,8.4
2023-01-13T19:12:12.998Z,8.4
2023-01-13T19:32:26.919Z,8.3
2023-01-13T19:42:32.950Z,8.3
2023-01-13T19:52:39.007Z,8.3
2023-01-13T20:02:45.173Z,8.3
2023-01-13T20:12:51.103Z,8.2
2023-01-13T20:22:57.156Z,8.2
2023-01-13T20:33:03.231Z,8.2
2023-01-13T20:43:09.244Z,8.4
2023-01-13T20:53:15.288Z,8.2
2023-01-13T21:03:21.306Z,8.4
2023-01-13T21:13:27.377Z,8.3
2023-01-13T21:23:33.423Z,8.3
2023-01-13T21:33:39.507Z,8.3
2023-01-13T21:43:45.499Z,8.1
2023-01-13T21:53:51.573Z,8.3
2023-01-13T22:03:57.588Z,8.2
2023-01-13T22:14:03.662Z,8.2
2023-01-13T22:24:09.693Z,8.2
2023-01-13T22:34:15.763Z,8.2
2023-01-13T22:44:21.775Z,8.2
2023-01-13T22:54:27.835Z,8.2
2023-01-13T23:04:33.930Z,8.1
2023-01-13T23:14:39.941Z,8.1
2023-01-13T23:24:46.032Z,8.1
2023-01-13T23:34:52.052Z,8.1
2023-01-13T23:44:58.064Z,8.1
2023-01-13T23:55:04.159Z,8.1
